Upstream stations:
Downstream station:
SHEF ID: OSOK1 Oswego hwy 160
STATION TYPE:
PRECIP STAGE RIV-FLOW VOLTAGE BAT-LOAD
in ft cfs volt volt
Ccp-Rev Ccp-Rev Ccp-Rev Ccp-Rev Ccp-Rev
(US/Central)
04/06 00:00 0.00 12.27 2932 12.57 12.49
04/06 01:00 0.00 12.25 2911 12.57 12.49
04/06 02:00 0.00 12.23 2890 12.57 12.41
04/06 03:00 0.00 12.22 2880 12.57 12.41
04/06 04:00 0.00 12.28 2942 12.57 12.41
04/06 05:00 0.00 12.26 2921 12.57 12.41
04/06 06:00 0.00 12.22 2880 12.57 12.41
04/06 07:00 0.00 12.23 2890 12.57 12.41
04/06 08:00 0.00 12.18 2839 12.65 12.41
04/06 09:00 0.00 12.21 2870 12.97 12.81
04/06 10:00 0.00 12.15 2808 13.05 12.81
04/06 11:00 0.00 12.21 2870 13.29 12.81
04/06 12:00 0.00 12.13 2788 13.44 12.65
04/06 13:00 0.00 12.16 2818 13.37 12.81
04/06 14:00 0.00 12.20 2859 13.37 12.65
04/06 15:00 0.00 12.20 2859 13.53 12.73
04/06 16:00 0.00 12.15 2808 13.53 13.29
04/06 17:00 0.00 12.16 2818 13.76 12.73
04/06 18:00 0.00 12.21 2870 13.53 12.65
04/06 19:00 0.00 12.16 2818 12.65 12.57
04/06 20:00 0.00 12.14 2798 12.65 12.57
04/06 21:00 0.00 12.16 2818 12.65 12.49
04/06 22:00 0.00 12.14 2798 12.65 12.49
04/06 23:00 ---- ---- ---- ---- ----